createdAt,value
2023-01-19T00:00:54.043Z,0.73
2023-01-19T00:03:21.777Z,1.15
2023-01-19T00:05:49.187Z,0.70
2023-01-19T00:08:16.142Z,0.63
2023-01-19T00:10:47.898Z,0.65
2023-01-19T00:13:15.191Z,0.77
2023-01-19T00:15:42.187Z,0.63
2023-01-19T00:18:10.682Z,0.77
2023-01-19T00:20:38.237Z,1.02
2023-01-19T00:23:05.743Z,1.00
2023-01-19T00:25:32.431Z,0.90
2023-01-19T00:28:01.356Z,1.10
2023-01-19T00:30:28.629Z,0.90
2023-01-19T00:32:56.073Z,1.27
2023-01-19T00:35:22.884Z,0.80
2023-01-19T00:37:49.717Z,0.57
2023-01-19T00:40:17.144Z,0.88
2023-01-19T00:42:48.573Z,0.77
2023-01-19T00:45:19.001Z,0.70
2023-01-19T00:47:47.088Z,0.60
2023-01-19T00:50:19.510Z,1.52
2023-01-19T00:52:46.414Z,0.50
2023-01-19T00:55:14.686Z,0.50
2023-01-19T00:57:42.274Z,0.40
2023-01-19T01:00:12.056Z,0.57
2023-01-19T01:02:40.303Z,0.98
2023-01-19T01:05:08.076Z,0.55
2023-01-19T01:07:40.874Z,0.65
2023-01-19T01:10:09.823Z,0.60
2023-01-19T01:12:37.304Z,0.75
2023-01-19T01:15:10.185Z,0.70
2023-01-19T01:17:37.605Z,0.70
2023-01-19T01:20:05.029Z,0.73
2023-01-19T01:22:31.861Z,0.55
2023-01-19T01:24:58.594Z,0.40
2023-01-19T01:27:25.387Z,0.38
2023-01-19T01:29:52.212Z,0.60
2023-01-19T01:32:19.084Z,0.50
2023-01-19T01:34:45.822Z,0.70
2023-01-19T01:37:12.688Z,0.60
2023-01-19T01:39:39.419Z,0.60
2023-01-19T01:42:17.432Z,0.60
2023-01-19T01:44:50.149Z,0.50
2023-01-19T01:47:26.286Z,0.90
2023-01-19T01:49:58.821Z,0.60
2023-01-19T01:52:27.013Z,0.82
2023-01-19T01:54:53.970Z,0.75
2023-01-19T01:57:20.870Z,0.77
2023-01-19T01:59:48.733Z,0.90
2023-01-19T02:02:40.074Z,0.47
2023-01-19T02:05:12.760Z,0.63
2023-01-19T02:08:04.289Z,0.70
2023-01-19T02:10:50.024Z,0.77
2023-01-19T02:13:20.048Z,0.70
2023-01-19T02:15:51.815Z,1.20
2023-01-19T02:18:22.853Z,0.80
2023-01-19T02:21:20.446Z,0.70
2023-01-19T02:23:52.857Z,0.80
2023-01-19T02:26:21.996Z,0.73
2023-01-19T02:28:52.033Z,0.50
2023-01-19T02:31:19.050Z,0.80
2023-01-19T02:33:45.951Z,0.77
2023-01-19T02:36:15.244Z,0.65
2023-01-19T02:38:43.105Z,0.80
2023-01-19T02:41:12.101Z,0.47
2023-01-19T02:43:39.044Z,0.50
2023-01-19T02:46:05.941Z,0.60
2023-01-19T02:48:32.672Z,0.63
2023-01-19T02:51:04.725Z,0.80
2023-01-19T02:54:06.951Z,0.40
2023-01-19T02:56:45.749Z,0.80
2023-01-19T02:59:24.686Z,0.60
2023-01-19T03:02:04.651Z,0.55
2023-01-19T03:04:49.688Z,0.50
2023-01-19T03:08:04.671Z,0.40
2023-01-19T03:10:52.853Z,0.50
2023-01-19T03:13:25.360Z,0.50
2023-01-19T03:15:56.102Z,0.50
2023-01-19T03:20:53.576Z,0.70
2023-01-19T03:23:21.223Z,0.70
2023-01-19T03:25:49.470Z,0.80
2023-01-19T03:28:18.621Z,0.63
2023-01-19T03:30:49.032Z,0.68
2023-01-19T03:33:29.591Z,0.95
2023-01-19T03:36:07.197Z,0.30
2023-01-19T03:38:37.624Z,0.68
2023-01-19T03:41:11.822Z,0.60
2023-01-19T03:43:40.036Z,0.43
2023-01-19T03:46:07.867Z,0.50
2023-01-19T03:48:34.830Z,0.43
2023-01-19T03:51:06.132Z,0.65
2023-01-19T03:53:33.073Z,0.43
2023-01-19T03:55:59.970Z,0.30
2023-01-19T03:58:26.908Z,0.93
2023-01-19T04:00:53.759Z,0.47
2023-01-19T04:03:20.564Z,0.68
2023-01-19T04:05:47.497Z,0.52
2023-01-19T04:08:14.289Z,0.57
2023-01-19T04:10:41.296Z,0.50
2023-01-19T04:13:08.245Z,0.73
2023-01-19T04:15:35.129Z,1.33
2023-01-19T04:18:02.090Z,1.05
2023-01-19T04:20:29.654Z,0.60
2023-01-19T04:23:01.106Z,0.73
2023-01-19T04:25:29.174Z,0.40
2023-01-19T04:27:58.024Z,0.60
2023-01-19T04:30:25.133Z,0.47
2023-01-19T04:32:52.135Z,0.50
2023-01-19T04:35:20.091Z,0.88
2023-01-19T04:40:13.800Z,0.57
2023-01-19T04:42:45.168Z,0.55
2023-01-19T04:45:13.391Z,0.90
2023-01-19T04:47:40.344Z,0.40
2023-01-19T04:50:08.499Z,0.50
2023-01-19T04:52:35.859Z,0.30
2023-01-19T04:55:06.737Z,0.60
2023-01-19T05:00:01.140Z,0.60
2023-01-19T05:02:27.990Z,0.70
2023-01-19T05:04:54.795Z,0.65
2023-01-19T05:07:21.608Z,1.25
2023-01-19T05:09:48.772Z,0.77
2023-01-19T05:12:15.609Z,0.30
2023-01-19T05:14:43.412Z,0.40
2023-01-19T05:17:10.532Z,0.65
2023-01-19T05:19:37.273Z,0.52
2023-01-19T05:22:04.858Z,0.60
2023-01-19T05:24:31.966Z,0.60
2023-01-19T05:26:59.129Z,0.50
2023-01-19T05:29:25.885Z,0.65
2023-01-19T05:31:52.745Z,0.50
2023-01-19T05:34:19.633Z,0.50
2023-01-19T05:36:46.384Z,0.60
2023-01-19T05:39:13.195Z,0.50
2023-01-19T05:41:42.063Z,0.68
2023-01-19T05:44:10.349Z,0.60
2023-01-19T05:46:37.216Z,0.50
2023-01-19T05:49:05.233Z,0.60
2023-01-19T05:51:35.247Z,0.47
2023-01-19T05:54:02.245Z,0.60
2023-01-19T05:56:29.425Z,1.00
2023-01-19T05:58:56.187Z,0.50
2023-01-19T06:01:23.070Z,0.43
2023-01-19T06:03:50.002Z,0.40
2023-01-19T06:06:17.253Z,0.60
2023-01-19T06:08:44.809Z,0.45
2023-01-19T06:11:12.160Z,0.30
2023-01-19T06:13:42.273Z,0.60
2023-01-19T06:16:09.788Z,0.50
2023-01-19T06:18:36.692Z,0.50
2023-01-19T06:21:05.579Z,0.70
2023-01-19T06:23:33.075Z,0.28
2023-01-19T06:26:00.349Z,0.60
2023-01-19T06:28:27.174Z,0.90
2023-01-19T06:30:55.535Z,0.45
2023-01-19T06:33:23.424Z,0.60
2023-01-19T06:35:50.715Z,0.60
2023-01-19T06:38:18.607Z,0.68
2023-01-19T06:40:46.578Z,0.70
2023-01-19T06:43:13.439Z,0.63
2023-01-19T06:45:40.250Z,0.50
2023-01-19T06:48:07.072Z,0.70
2023-01-19T06:50:33.895Z,0.60
2023-01-19T06:53:01.174Z,0.47
2023-01-19T06:55:28.284Z,0.68
2023-01-19T06:57:59.047Z,0.52
2023-01-19T07:02:52.857Z,0.60
2023-01-19T07:05:22.186Z,0.60
2023-01-19T07:07:53.594Z,0.40
2023-01-19T07:10:21.043Z,0.60
2023-01-19T07:12:48.141Z,0.60
2023-01-19T07:15:16.434Z,0.57
2023-01-19T07:17:44.166Z,0.43
2023-01-19T07:20:14.222Z,0.50
2023-01-19T07:22:42.085Z,0.70
2023-01-19T07:25:09.163Z,0.50
2023-01-19T07:27:36.326Z,0.82
2023-01-19T07:30:04.604Z,0.43
2023-01-19T07:32:31.418Z,0.52
2023-01-19T07:34:58.325Z,0.57
2023-01-19T07:37:25.263Z,0.50
2023-01-19T07:39:52.034Z,0.82
2023-01-19T07:42:18.832Z,0.50
2023-01-19T07:44:46.789Z,0.65
2023-01-19T07:47:13.749Z,0.70
2023-01-19T07:49:40.492Z,0.50
2023-01-19T07:52:07.319Z,0.60
2023-01-19T07:54:34.047Z,0.50
2023-01-19T07:57:01.331Z,0.50
2023-01-19T07:59:30.327Z,0.50
2023-01-19T08:01:59.562Z,0.80
2023-01-19T08:04:27.397Z,0.50
2023-01-19T08:06:55.660Z,0.57
2023-01-19T08:09:22.828Z,1.10
2023-01-19T08:11:49.646Z,0.40
2023-01-19T08:14:16.499Z,0.93
2023-01-19T08:16:43.328Z,1.17
2023-01-19T08:19:10.856Z,3.00
2023-01-19T08:21:39.030Z,1.40
2023-01-19T08:24:06.241Z,0.93
2023-01-19T08:26:35.045Z,0.77
2023-01-19T08:29:04.295Z,0.63
2023-01-19T08:31:31.594Z,0.70
2023-01-19T08:33:58.759Z,0.70
2023-01-19T08:36:25.893Z,1.17
2023-01-19T08:38:52.901Z,0.80
2023-01-19T08:41:19.952Z,0.80
2023-01-19T08:43:46.958Z,0.65
2023-01-19T08:46:17.579Z,0.85
2023-01-19T08:48:48.789Z,0.70
2023-01-19T08:51:15.912Z,0.52
2023-01-19T08:53:43.156Z,0.55
2023-01-19T08:56:14.379Z,0.77
2023-01-19T08:58:45.757Z,0.60
2023-01-19T09:01:22.907Z,0.70
2023-01-19T09:03:49.823Z,0.75
2023-01-19T09:06:19.690Z,0.73
2023-01-19T09:08:47.554Z,0.90
2023-01-19T09:11:15.842Z,0.50
2023-01-19T09:13:43.003Z,0.60
2023-01-19T09:16:11.560Z,0.52
2023-01-19T09:18:38.550Z,0.47
2023-01-19T09:21:05.585Z,0.40
2023-01-19T09:23:32.543Z,0.70
2023-01-19T09:26:01.828Z,0.70
2023-01-19T09:28:29.458Z,0.70
2023-01-19T09:30:56.940Z,0.80
2023-01-19T09:33:24.760Z,0.90
2023-01-19T09:35:52.029Z,0.93
2023-01-19T09:38:19.705Z,0.55
2023-01-19T09:40:52.315Z,1.17
2023-01-19T09:43:21.727Z,1.08
2023-01-19T09:45:58.740Z,0.63
2023-01-19T09:48:44.099Z,1.13
2023-01-19T09:51:33.870Z,0.80
2023-01-19T09:54:12.355Z,0.80
2023-01-19T09:56:39.377Z,1.00
2023-01-19T09:59:25.192Z,1.17
2023-01-19T10:01:52.620Z,0.90
2023-01-19T10:04:34.275Z,1.00
2023-01-19T10:07:28.248Z,0.93
2023-01-19T10:10:33.346Z,1.83
2023-01-19T10:13:10.647Z,1.00
2023-01-19T10:16:01.365Z,1.30
2023-01-19T10:18:43.318Z,1.20
2023-01-19T10:21:40.256Z,0.65
2023-01-19T10:24:25.127Z,0.90
2023-01-19T10:26:54.648Z,0.70
2023-01-19T10:29:37.874Z,0.60
2023-01-19T10:32:25.737Z,0.93
2023-01-19T10:34:53.742Z,0.60
2023-01-19T10:37:33.649Z,1.08
2023-01-19T10:40:09.656Z,0.60
2023-01-19T10:42:38.403Z,0.20
2023-01-19T10:45:19.709Z,0.22
2023-01-19T10:47:47.915Z,0.30
2023-01-19T10:50:41.798Z,0.28
2023-01-19T10:53:20.760Z,0.30
2023-01-19T10:55:47.584Z,0.38
2023-01-19T10:58:29.114Z,0.40
2023-01-19T11:00:56.187Z,0.30
2023-01-19T11:03:30.675Z,0.40
2023-01-19T11:06:15.801Z,0.30
2023-01-19T11:08:43.770Z,0.30
2023-01-19T11:11:12.508Z,0.30
2023-01-19T11:13:40.589Z,0.30
2023-01-19T11:16:27.230Z,0.30
2023-01-19T11:18:57.293Z,0.40
2023-01-19T11:21:27.084Z,0.40
2023-01-19T11:23:56.342Z,0.50
2023-01-19T11:26:41.770Z,0.32
2023-01-19T11:29:21.725Z,0.40
2023-01-19T11:31:49.252Z,0.40
2023-01-19T11:34:24.749Z,0.52
2023-01-19T11:37:18.136Z,0.70
2023-01-19T11:39:58.496Z,0.82
2023-01-19T11:42:26.084Z,0.90
2023-01-19T11:45:01.705Z,0.90
2023-01-19T11:47:54.760Z,1.10
2023-01-19T11:50:29.316Z,0.60
2023-01-19T11:53:33.226Z,0.60
2023-01-19T11:56:14.265Z,0.45
2023-01-19T11:58:46.880Z,0.68
2023-01-19T12:01:22.008Z,0.70
2023-01-19T12:03:57.501Z,0.60
2023-01-19T12:06:54.751Z,0.50
2023-01-19T12:09:28.415Z,0.65
2023-01-19T12:12:05.300Z,0.57
2023-01-19T12:14:40.260Z,0.60
2023-01-19T12:17:14.195Z,0.90
2023-01-19T12:19:54.900Z,0.98
2023-01-19T12:24:52.562Z,0.50
2023-01-19T12:27:33.646Z,0.50
2023-01-19T12:30:00.933Z,0.57
2023-01-19T12:32:36.798Z,0.45
2023-01-19T12:35:03.835Z,0.40
2023-01-19T12:37:40.105Z,1.80
2023-01-19T12:40:20.932Z,4.85
2023-01-19T12:42:56.782Z,1.92
2023-01-19T12:45:25.925Z,1.00
2023-01-19T12:47:53.604Z,0.85
2023-01-19T12:50:23.423Z,0.60
2023-01-19T12:52:57.232Z,0.50
2023-01-19T12:55:33.290Z,0.55
2023-01-19T12:58:21.518Z,0.50
2023-01-19T13:00:50.199Z,0.80
2023-01-19T13:03:19.851Z,0.73
2023-01-19T13:05:54.717Z,1.20
2023-01-19T13:08:25.960Z,0.80
2023-01-19T13:11:12.450Z,0.73
2023-01-19T13:13:45.132Z,0.93
2023-01-19T13:16:27.701Z,0.77
2023-01-19T13:19:08.646Z,0.85
2023-01-19T13:21:39.840Z,0.88
2023-01-19T13:24:22.832Z,0.70
2023-01-19T13:26:49.632Z,0.77
2023-01-19T13:29:40.386Z,0.63
2023-01-19T13:32:16.016Z,0.60
2023-01-19T13:34:45.717Z,0.75
2023-01-19T13:39:49.993Z,0.70
2023-01-19T13:42:29.815Z,0.65
2023-01-19T13:44:59.800Z,0.30
2023-01-19T13:47:39.085Z,0.32
2023-01-19T13:50:06.505Z,0.32
2023-01-19T13:52:33.264Z,0.30
2023-01-19T13:55:03.453Z,0.20
2023-01-19T13:57:41.201Z,1.10
2023-01-19T14:00:16.976Z,8.23
2023-01-19T14:03:01.771Z,5.28
2023-01-19T14:05:30.194Z,1.00
2023-01-19T14:08:13.600Z,1.35
2023-01-19T14:10:47.928Z,1.23
2023-01-19T14:13:18.539Z,0.68
2023-01-19T14:15:47.129Z,0.50
2023-01-19T14:18:16.840Z,0.77
2023-01-19T14:21:04.099Z,0.75
2023-01-19T14:23:42.090Z,0.68
2023-01-19T14:26:43.060Z,0.50
2023-01-19T14:29:09.797Z,0.60
2023-01-19T14:32:04.051Z,0.77
2023-01-19T14:34:42.732Z,1.02
2023-01-19T14:37:21.742Z,1.15
2023-01-19T14:39:55.294Z,0.55
2023-01-19T14:42:31.740Z,0.70
2023-01-19T14:45:01.163Z,0.60
2023-01-19T14:47:32.558Z,0.63
2023-01-19T14:50:04.965Z,0.82
2023-01-19T14:52:35.046Z,0.60
2023-01-19T14:55:03.885Z,0.63
2023-01-19T14:57:30.649Z,0.47
2023-01-19T14:59:57.424Z,0.60
2023-01-19T15:02:24.188Z,0.50
2023-01-19T15:04:55.233Z,0.80
2023-01-19T15:07:24.276Z,0.80
2023-01-19T15:09:51.392Z,0.63
2023-01-19T15:12:18.580Z,0.90
2023-01-19T15:14:45.677Z,1.25
2023-01-19T15:17:16.936Z,0.90
2023-01-19T15:19:43.773Z,0.80
2023-01-19T15:22:14.812Z,0.98
2023-01-19T15:24:41.669Z,0.57
2023-01-19T15:27:11.924Z,0.73
2023-01-19T15:29:42.281Z,0.90
2023-01-19T15:32:13.518Z,0.70
2023-01-19T15:34:40.744Z,1.02
2023-01-19T15:37:07.974Z,0.95
2023-01-19T15:39:35.030Z,1.60
2023-01-19T15:42:01.805Z,1.05
2023-01-19T15:44:28.646Z,0.90
2023-01-19T15:46:55.423Z,1.13
2023-01-19T15:49:23.209Z,0.68
2023-01-19T15:51:49.996Z,0.80
2023-01-19T15:54:17.014Z,0.90
2023-01-19T15:56:43.735Z,0.82
2023-01-19T15:59:10.709Z,0.80
2023-01-19T16:01:37.579Z,1.23
2023-01-19T16:04:07.517Z,0.90
2023-01-19T16:06:34.451Z,1.02
2023-01-19T16:09:01.723Z,0.70
2023-01-19T16:11:32.319Z,0.90
2023-01-19T16:13:59.248Z,1.17
2023-01-19T16:16:28.048Z,0.90
2023-01-19T16:18:55.557Z,0.90
2023-01-19T16:21:22.638Z,0.95
2023-01-19T16:23:49.697Z,1.02
2023-01-19T16:26:34.564Z,0.98
2023-01-19T16:29:08.704Z,1.00
2023-01-19T16:31:39.700Z,1.23
2023-01-19T16:34:06.954Z,1.73
2023-01-19T16:36:36.381Z,1.95
2023-01-19T16:39:06.589Z,1.35
2023-01-19T16:41:34.274Z,1.30
2023-01-19T16:44:01.573Z,1.75
2023-01-19T16:46:30.545Z,2.30
2023-01-19T16:49:02.284Z,1.60
2023-01-19T16:51:29.748Z,1.85
2023-01-19T16:53:56.542Z,1.40
2023-01-19T16:56:23.355Z,1.20
2023-01-19T16:58:57.140Z,1.38
2023-01-19T17:01:25.602Z,1.02
2023-01-19T17:03:52.403Z,1.20
2023-01-19T17:06:22.752Z,0.80
2023-01-19T17:08:50.512Z,1.05
2023-01-19T17:11:22.495Z,0.85
2023-01-19T17:14:17.797Z,1.00
2023-01-19T17:16:44.624Z,0.90
2023-01-19T17:19:15.179Z,1.10
2023-01-19T17:21:44.522Z,1.10
2023-01-19T17:24:11.310Z,2.28
2023-01-19T17:26:38.282Z,1.38
2023-01-19T17:29:06.938Z,0.90
2023-01-19T17:31:34.571Z,1.45
2023-01-19T17:34:01.441Z,1.63
2023-01-19T17:36:29.851Z,1.00
2023-01-19T17:38:58.344Z,1.40
2023-01-19T17:41:27.909Z,1.33
2023-01-19T17:43:55.128Z,1.40
2023-01-19T17:46:24.336Z,1.63
2023-01-19T17:48:54.576Z,1.38
2023-01-19T17:51:24.862Z,1.27
2023-01-19T17:53:52.460Z,1.20
2023-01-19T17:56:26.283Z,1.77
2023-01-19T17:58:53.511Z,1.35
2023-01-19T18:01:25.665Z,2.35
2023-01-19T18:03:53.220Z,1.52
2023-01-19T18:06:20.598Z,1.50
2023-01-19T18:08:49.173Z,1.25
2023-01-19T18:11:18.370Z,1.38
2023-01-19T18:13:46.723Z,1.10
2023-01-19T18:16:15.770Z,1.40
2023-01-19T18:18:44.111Z,1.10
2023-01-19T18:21:13.156Z,1.10
2023-01-19T18:23:40.373Z,1.10
2023-01-19T18:26:10.069Z,1.42
2023-01-19T18:28:37.328Z,1.08
2023-01-19T18:31:22.971Z,0.93
2023-01-19T18:33:49.827Z,1.58
2023-01-19T18:36:17.417Z,1.48
2023-01-19T18:38:44.891Z,1.70
2023-01-19T18:41:17.166Z,1.10
2023-01-19T18:43:44.316Z,0.80
2023-01-19T18:46:11.514Z,2.08
2023-01-19T18:48:39.109Z,1.50
2023-01-19T18:51:11.273Z,1.23
2023-01-19T18:53:38.666Z,1.50
2023-01-19T18:56:06.349Z,1.30
2023-01-19T18:58:34.184Z,1.20
2023-01-19T19:01:01.828Z,1.23
2023-01-19T19:03:29.068Z,1.00
2023-01-19T19:05:56.326Z,1.33
2023-01-19T19:08:23.226Z,2.17
2023-01-19T19:10:49.982Z,1.50
2023-01-19T19:13:17.594Z,1.23
2023-01-19T19:15:44.561Z,1.45
2023-01-19T19:18:13.921Z,1.75
2023-01-19T19:20:43.172Z,2.13
2023-01-19T19:23:10.939Z,2.00
2023-01-19T19:25:38.183Z,1.30
2023-01-19T19:28:05.104Z,1.17
2023-01-19T19:30:34.387Z,0.88
2023-01-19T19:33:01.473Z,1.38
2023-01-19T19:35:30.450Z,0.90
2023-01-19T19:37:58.109Z,1.42
2023-01-19T19:40:26.187Z,1.10
2023-01-19T19:42:53.151Z,1.45
2023-01-19T19:45:20.593Z,2.10
2023-01-19T19:47:47.409Z,1.38
2023-01-19T19:50:14.564Z,1.52
2023-01-19T19:52:42.079Z,1.30
2023-01-19T19:55:09.926Z,1.35
2023-01-19T19:57:36.837Z,1.00
2023-01-19T20:00:05.276Z,1.42
2023-01-19T20:02:36.752Z,1.20
2023-01-19T20:05:04.388Z,1.50
2023-01-19T20:07:31.329Z,1.58
2023-01-19T20:09:58.435Z,1.23
2023-01-19T20:12:25.321Z,1.10
2023-01-19T20:14:52.385Z,0.93
2023-01-19T20:17:20.746Z,1.60
2023-01-19T20:19:49.061Z,1.17
2023-01-19T20:22:16.054Z,1.30
2023-01-19T20:24:42.896Z,1.05
2023-01-19T20:27:09.718Z,1.00
2023-01-19T20:29:36.601Z,1.20
2023-01-19T20:32:03.620Z,1.67
2023-01-19T20:34:33.463Z,1.38
2023-01-19T20:37:01.887Z,0.90
2023-01-19T20:39:30.170Z,0.85
2023-01-19T20:41:57.082Z,1.10
2023-01-19T20:44:25.417Z,0.90
2023-01-19T20:46:53.610Z,1.02
2023-01-19T20:49:20.548Z,1.13
2023-01-19T20:51:47.683Z,1.20
2023-01-19T20:54:16.529Z,0.95
2023-01-19T20:56:43.342Z,1.33
2023-01-19T20:59:10.933Z,0.98
2023-01-19T21:01:38.293Z,0.98
2023-01-19T21:04:05.167Z,0.75
2023-01-19T21:06:31.895Z,1.08
2023-01-19T21:08:58.735Z,0.95
2023-01-19T21:11:25.784Z,1.10
2023-01-19T21:13:56.018Z,0.75
2023-01-19T21:16:28.435Z,1.15
2023-01-19T21:18:55.780Z,0.93
2023-01-19T21:21:30.539Z,1.15
2023-01-19T21:24:02.363Z,1.00
2023-01-19T21:29:01.734Z,0.95
2023-01-19T21:31:29.193Z,0.73
2023-01-19T21:33:57.308Z,1.48
2023-01-19T21:36:24.645Z,1.00
2023-01-19T21:38:52.516Z,1.40
2023-01-19T21:41:19.762Z,1.52
2023-01-19T21:43:46.895Z,1.48
2023-01-19T21:46:15.174Z,1.25
2023-01-19T21:48:42.095Z,1.63
2023-01-19T21:51:09.477Z,1.45
2023-01-19T21:53:36.610Z,2.03
2023-01-19T21:56:06.422Z,1.67
2023-01-19T21:58:33.320Z,2.42
2023-01-19T22:01:06.136Z,1.88
2023-01-19T22:03:33.191Z,2.22
2023-01-19T22:06:07.796Z,1.80
2023-01-19T22:08:35.279Z,2.17
2023-01-19T22:11:06.031Z,3.00
2023-01-19T22:13:33.875Z,1.88
2023-01-19T22:16:05.275Z,2.55
2023-01-19T22:18:32.472Z,1.85
2023-01-19T22:21:13.222Z,1.70
2023-01-19T22:23:40.435Z,2.20
2023-01-19T22:26:08.269Z,1.95
2023-01-19T22:28:35.912Z,1.60
2023-01-19T22:31:15.510Z,2.47
2023-01-19T22:33:42.972Z,3.38
2023-01-19T22:36:10.726Z,2.13
2023-01-19T22:38:39.964Z,2.47
2023-01-19T22:41:28.384Z,3.05
2023-01-19T22:43:58.212Z,3.53
2023-01-19T22:46:27.537Z,2.83
2023-01-19T22:48:55.023Z,2.60
2023-01-19T22:51:22.587Z,2.88
2023-01-19T22:53:49.605Z,3.63
2023-01-19T22:56:18.872Z,2.35
2023-01-19T22:58:46.335Z,2.08
2023-01-19T23:01:15.268Z,2.58
2023-01-19T23:03:42.227Z,1.77
2023-01-19T23:06:14.958Z,2.58
2023-01-19T23:08:42.333Z,3.45
2023-01-19T23:11:12.091Z,3.00
2023-01-19T23:13:38.941Z,2.90
2023-01-19T23:16:06.653Z,2.60
2023-01-19T23:18:33.850Z,2.70
2023-01-19T23:21:10.009Z,2.20
2023-01-19T23:23:37.569Z,2.80
2023-01-19T23:26:07.242Z,2.33
2023-01-19T23:28:34.408Z,2.75
2023-01-19T23:31:01.435Z,2.92
2023-01-19T23:33:28.319Z,2.30
2023-01-19T23:35:55.668Z,3.25
2023-01-19T23:38:22.708Z,2.05
2023-01-19T23:40:49.559Z,2.03
2023-01-19T23:43:16.392Z,2.08
2023-01-19T23:45:43.132Z,2.22
2023-01-19T23:48:10.147Z,2.30
2023-01-19T23:50:40.004Z,2.28
2023-01-19T23:53:07.163Z,2.03
2023-01-19T23:55:33.882Z,2.40
2023-01-19T23:58:00.658Z,3.22
